Time;durP1;ratioP1;P1;durP2;ratioP2;P2;SDS_P1;SDS_P2;PMS_P1;PMS_P2;Temp;Humidity;BMP_temperature;BMP_pressure;BME280_temperature;BME280_humidity;BME280_pressure;Samples;Min_cycle;Max_cycle;Signal;HPM_P1;HPM_P2
2023/12/12 00:00:30;;;;;;;10.80;8.10;;;;;;;20.91;32.43;100640.81;103097;1296;61457;-82
2023/12/12 00:03:00;;;;;;;11.00;8.60;;;;;;;20.90;32.40;100628.74;103132;1296;61396;-82
2023/12/12 00:05:26;;;;;;;12.30;9.20;;;;;;;20.88;32.56;100616.05;103184;1298;62072;-82
2023/12/12 00:07:51;;;;;;;12.10;8.30;;;;;;;20.87;32.56;100618.10;103102;1296;61393;-81
2023/12/12 00:10:17;;;;;;;11.40;8.60;;;;;;;20.86;32.71;100613.34;103245;1301;61311;-81
2023/12/12 00:12:44;;;;;;;10.70;8.70;;;;;;;20.84;32.68;100608.05;103221;1301;61388;-81
2023/12/12 00:15:09;;;;;;;11.50;8.90;;;;;;;20.83;32.60;100602.05;103008;1301;61442;-81
2023/12/12 00:17:37;;;;;;;12.70;8.30;;;;;;;20.83;32.55;100599.05;103136;1296;61458;-81
2023/12/12 00:20:04;;;;;;;12.20;8.70;;;;;;;20.81;32.62;100598.80;103033;1296;61221;-82
2023/12/12 00:22:31;;;;;;;11.80;8.60;;;;;;;20.81;32.63;100602.98;103136;1298;74667;-82
2023/12/12 00:24:57;;;;;;;12.40;8.40;;;;;;;20.79;32.56;100602.53;103137;1295;61435;-82
2023/12/12 00:27:23;;;;;;;10.90;8.60;;;;;;;20.79;32.66;100607.59;103063;1296;61391;-82
2023/12/12 00:29:49;;;;;;;11.40;8.60;;;;;;;20.78;32.60;100613.89;103123;1298;61341;-82
2023/12/12 00:32:14;;;;;;;11.30;8.80;;;;;;;20.78;32.72;100619.11;103183;1302;61413;-82
2023/12/12 00:34:40;;;;;;;11.10;8.30;;;;;;;20.77;32.66;100627.39;103126;1296;61409;-82
2023/12/12 00:37:06;;;;;;;12.00;8.90;;;;;;;20.76;32.60;100628.66;103157;1296;61340;-82
2023/12/12 00:39:36;;;;;;;12.00;8.80;;;;;;;20.75;32.69;100631.08;103235;1298;61368;-82
2023/12/12 00:42:03;;;;;;;10.60;8.80;;;;;;;20.75;32.70;100625.90;103146;1301;72458;-82
2023/12/12 00:44:29;;;;;;;11.10;8.40;;;;;;;20.74;32.69;100623.81;103126;1296;61317;-81
2023/12/12 00:46:54;;;;;;;12.30;8.40;;;;;;;20.75;32.62;100628.97;103167;1294;61458;-82
2023/12/12 00:49:20;;;;;;;12.10;8.10;;;;;;;20.74;32.72;100628.50;103170;1296;61835;-82
2023/12/12 00:51:46;;;;;;;11.90;8.90;;;;;;;20.73;32.66;100635.66;103187;1301;61862;-82
2023/12/12 00:54:11;;;;;;;11.70;8.50;;;;;;;20.73;32.64;100631.77;103061;1296;61377;-82
2023/12/12 00:56:37;;;;;;;11.70;8.40;;;;;;;20.73;32.68;100633.91;103194;1298;61368;-81
2023/12/12 00:59:02;;;;;;;10.40;8.30;;;;;;;20.73;32.75;100634.25;103192;1302;61307;-81
2023/12/12 01:01:28;;;;;;;11.30;8.40;;;;;;;20.75;32.63;100634.86;103049;1296;61493;-82
2023/12/12 01:03:54;;;;;;;11.90;8.90;;;;;;;20.76;32.53;100633.15;103102;1296;61464;-82
2023/12/12 01:06:26;;;;;;;11.40;8.70;;;;;;;20.79;32.66;100635.15;103190;1296;61394;-82
2023/12/12 01:08:51;;;;;;;13.40;8.70;;;;;;;20.80;32.59;100629.66;103034;1302;61347;-82
2023/12/12 01:11:20;;;;;;;12.20;8.90;;;;;;;20.82;32.73;100617.34;103163;1299;61290;-82
2023/12/12 01:13:46;;;;;;;12.90;9.00;;;;;;;20.85;32.59;100614.10;103254;1297;72514;-81
2023/12/12 01:16:12;;;;;;;12.60;8.90;;;;;;;20.86;32.54;100615.41;103221;1298;61429;-81
2023/12/12 01:18:37;;;;;;;12.80;8.90;;;;;;;20.89;32.55;100607.09;103162;1296;61406;-82
2023/12/12 01:21:03;;;;;;;13.40;8.90;;;;;;;20.91;32.53;100604.14;103161;1301;61406;-81
2023/12/12 01:23:51;;;;;;;12.20;9.30;;;;;;;20.93;32.51;100604.55;103166;1296;61401;-82
2023/12/12 01:26:21;;;;;;;11.60;9.10;;;;;;;20.95;32.43;100601.75;103188;1301;74361;-81
2023/12/12 01:28:48;;;;;;;12.40;8.60;;;;;;;20.97;32.54;100609.45;103118;1296;61305;-81
2023/12/12 01:31:15;;;;;;;12.90;8.90;;;;;;;20.99;32.43;100605.36;103272;1296;61301;-82
2023/12/12 01:33:42;;;;;;;11.20;8.40;;;;;;;21.02;32.43;100609.31;103118;1296;61387;-81
2023/12/12 01:36:07;;;;;;;12.00;8.30;;;;;;;21.03;32.40;100609.02;103282;1296;61426;-81
2023/12/12 01:38:33;;;;;;;12.10;8.90;;;;;;;21.05;32.41;100610.48;102987;1302;61314;-82
2023/12/12 01:40:59;;;;;;;13.40;9.30;;;;;;;21.06;32.32;100608.08;103056;1302;61358;-82
2023/12/12 01:43:25;;;;;;;11.30;8.40;;;;;;;21.08;32.37;100610.39;103030;1303;61534;-82
2023/12/12 01:45:51;;;;;;;10.60;8.00;;;;;;;21.10;32.27;100611.72;103142;1301;61339;-81
2023/12/12 01:48:16;;;;;;;11.10;8.50;;;;;;;21.12;32.24;100616.61;103316;1301;61469;-82
2023/12/12 01:50:42;;;;;;;10.90;8.60;;;;;;;21.13;32.29;100617.95;103144;1295;62280;-82
2023/12/12 01:53:08;;;;;;;11.20;8.80;;;;;;;21.15;32.21;100618.92;103159;1296;61407;-82
2023/12/12 01:55:35;;;;;;;11.30;8.60;;;;;;;21.15;32.30;100616.15;103322;1296;61321;-81
2023/12/12 01:58:00;;;;;;;11.70;8.80;;;;;;;21.17;32.33;100615.89;102990;1304;61410;-82
2023/12/12 02:00:26;;;;;;;12.60;9.30;;;;;;;21.18;32.26;100619.42;102989;1301;61321;-81
2023/12/12 02:02:52;;;;;;;11.20;8.30;;;;;;;21.19;32.17;100623.42;103211;1296;61383;-81
2023/12/12 02:05:17;;;;;;;12.30;9.00;;;;;;;21.20;32.19;100623.35;103216;1296;61391;-81
2023/12/12 02:07:43;;;;;;;12.50;9.20;;;;;;;21.21;32.21;100622.40;102957;1302;71483;-82
2023/12/12 02:10:09;;;;;;;12.20;8.90;;;;;;;21.21;32.10;100619.65;103183;1296;61387;-82
2023/12/12 02:12:35;;;;;;;11.00;8.20;;;;;;;21.22;32.12;100615.99;103251;1296;61399;-81
2023/12/12 02:15:01;;;;;;;12.00;8.80;;;;;;;21.23;32.22;100614.31;103049;1298;61924;-81
2023/12/12 02:17:27;;;;;;;11.20;8.70;;;;;;;21.24;32.09;100610.89;103243;1296;61514;-82
2023/12/12 02:19:53;;;;;;;12.40;8.60;;;;;;;21.25;32.18;100607.05;103051;1301;61776;-82
2023/12/12 02:22:18;;;;;;;11.70;8.70;;;;;;;21.26;32.07;100610.02;103208;1302;61425;-81
2023/12/12 02:24:44;;;;;;;14.00;8.60;;;;;;;21.26;32.02;100612.16;103182;1296;61762;-81
2023/12/12 02:27:11;;;;;;;11.30;8.40;;;;;;;21.27;32.16;100612.60;103187;1296;61416;-82
2023/12/12 02:29:36;;;;;;;11.10;8.70;;;;;;;21.27;31.97;100614.58;103213;1299;61429;-82
2023/12/12 02:32:02;;;;;;;10.60;8.20;;;;;;;21.28;32.11;100619.16;103119;1301;61390;-81
2023/12/12 02:34:28;;;;;;;12.00;8.50;;;;;;;21.28;32.15;100617.90;103219;1298;61387;-82
2023/12/12 02:36:54;;;;;;;12.30;8.50;;;;;;;21.29;32.12;100615.16;103188;1296;61355;-82
2023/12/12 02:39:19;;;;;;;14.10;9.10;;;;;;;21.29;32.06;100613.36;103318;1296;61451;-82
2023/12/12 02:41:46;;;;;;;11.90;9.10;;;;;;;21.30;32.07;100609.01;103178;1299;72133;-82
2023/12/12 02:44:12;;;;;;;11.60;8.50;;;;;;;21.30;32.04;100598.96;103170;1296;61646;-82
2023/12/12 02:46:39;;;;;;;11.10;8.30;;;;;;;21.31;31.97;100598.04;103173;1298;61335;-83
2023/12/12 02:49:06;;;;;;;12.00;8.70;;;;;;;21.31;31.97;100599.27;103261;1296;61653;-82
2023/12/12 02:51:32;;;;;;;13.00;9.00;;;;;;;21.31;32.08;100598.52;103139;1295;72364;-82
2023/12/12 02:53:58;;;;;;;10.70;8.30;;;;;;;21.32;32.07;100598.48;103188;1298;61405;-82
2023/12/12 02:56:24;;;;;;;11.20;8.30;;;;;;;21.32;31.91;100588.77;103193;1301;61415;-82
2023/12/12 02:58:49;;;;;;;12.50;8.10;;;;;;;21.33;31.96;100589.98;102972;1295;61437;-81
2023/12/12 03:01:15;;;;;;;11.90;9.00;;;;;;;21.33;31.95;100583.36;103126;1298;61416;-82
2023/12/12 03:03:41;;;;;;;11.90;8.50;;;;;;;21.33;32.04;100583.87;103266;1296;61349;-82
2023/12/12 03:06:09;;;;;;;12.40;9.10;;;;;;;21.33;32.03;100588.67;103250;1294;61426;-82
2023/12/12 03:08:35;;;;;;;12.40;8.40;;;;;;;21.33;32.01;100587.44;103267;1296;61365;-82
2023/12/12 03:11:01;;;;;;;11.20;8.10;;;;;;;21.34;31.93;100590.98;103184;1298;61310;-82
2023/12/12 03:13:27;;;;;;;11.20;8.60;;;;;;;21.34;31.94;100590.08;103111;1295;61494;-82
2023/12/12 03:15:53;;;;;;;10.50;8.00;;;;;;;21.34;31.93;100591.85;103057;1296;61442;-82
2023/12/12 03:18:18;;;;;;;10.70;8.40;;;;;;;21.35;31.90;100590.92;103209;1300;61638;-82
2023/12/12 03:20:44;;;;;;;11.40;8.60;;;;;;;21.35;31.88;100588.93;103216;1296;61377;-81
2023/12/12 03:23:10;;;;;;;11.10;8.30;;;;;;;21.35;31.81;100586.23;103220;1301;61263;-82
2023/12/12 03:25:35;;;;;;;10.20;7.70;;;;;;;21.35;31.88;100583.55;103097;1296;62172;-82
2023/12/12 03:28:01;;;;;;;11.70;8.70;;;;;;;21.36;31.91;100587.05;102947;1295;61407;-81
2023/12/12 03:30:27;;;;;;;11.00;8.00;;;;;;;21.36;31.89;100583.30;103150;1298;61422;-81
2023/12/12 03:32:52;;;;;;;11.90;8.60;;;;;;;21.36;31.98;100577.91;103197;1296;61328;-82
2023/12/12 03:35:18;;;;;;;10.70;7.80;;;;;;;21.36;31.90;100584.34;103299;1295;61409;-81
2023/12/12 03:37:44;;;;;;;11.00;7.90;;;;;;;21.37;31.94;100592.02;103275;1296;72495;-81
2023/12/12 03:40:10;;;;;;;11.30;8.00;;;;;;;21.37;32.03;100591.98;103223;1296;61320;-81
2023/12/12 03:42:36;;;;;;;10.40;7.90;;;;;;;21.38;31.90;100591.58;103225;1296;61358;-82
2023/12/12 03:45:01;;;;;;;11.50;8.20;;;;;;;21.38;31.96;100599.23;103077;1299;61237;-81
2023/12/12 03:47:27;;;;;;;9.90;7.60;;;;;;;21.38;31.98;100598.69;103165;1296;61489;-82
2023/12/12 03:49:53;;;;;;;10.40;8.00;;;;;;;21.38;31.88;100597.61;102929;1296;61506;-82
2023/12/12 03:52:18;;;;;;;11.20;8.40;;;;;;;21.39;31.94;100598.44;103200;1295;62209;-81
2023/12/12 03:54:44;;;;;;;10.60;7.70;;;;;;;21.39;31.92;100603.13;103108;1301;61317;-82
2023/12/12 03:57:10;;;;;;;10.70;7.90;;;;;;;21.39;31.88;100598.61;103326;1298;61729;-82
2023/12/12 03:59:35;;;;;;;10.90;8.30;;;;;;;21.40;31.97;100589.98;103174;1301;61405;-81
2023/12/12 04:02:01;;;;;;;11.60;7.90;;;;;;;21.40;32.02;100587.11;103222;1301;61441;-81
2023/12/12 04:04:27;;;;;;;11.40;8.40;;;;;;;21.40;31.96;100584.59;103250;1296;61308;-82
2023/12/12 04:06:53;;;;;;;10.20;7.80;;;;;;;21.40;32.01;100587.80;103310;1301;61358;-82
2023/12/12 04:09:19;;;;;;;10.30;7.30;;;;;;;21.40;31.99;100593.70;103032;1296;61496;-82
2023/12/12 04:11:44;;;;;;;11.00;7.80;;;;;;;21.41;31.99;100593.32;103241;1296;61478;-82
2023/12/12 04:14:10;;;;;;;9.30;7.40;;;;;;;21.41;31.93;100586.50;103455;1296;61391;-82
2023/12/12 04:16:36;;;;;;;9.90;7.60;;;;;;;21.41;31.96;100583.42;103214;1296;61496;-82
2023/12/12 04:19:01;;;;;;;9.50;7.40;;;;;;;21.41;31.98;100578.59;103283;1295;61422;-81
2023/12/12 04:21:27;;;;;;;10.60;8.20;;;;;;;21.41;31.94;100571.08;103333;1295;61377;-82
2023/12/12 04:23:53;;;;;;;9.80;7.90;;;;;;;21.41;31.97;100564.44;103463;1301;61365;-82
2023/12/12 04:26:18;;;;;;;9.80;7.30;;;;;;;21.42;32.02;100565.32;103238;1296;62051;-82
2023/12/12 04:28:44;;;;;;;11.30;7.00;;;;;;;21.42;32.05;100565.83;103121;1303;61350;-83
2023/12/12 04:31:18;;;;;;;10.90;7.70;;;;;;;21.42;31.97;100569.41;103318;1302;61412;-81
2023/12/12 04:33:44;;;;;;;9.70;7.10;;;;;;;21.43;31.98;100561.30;103288;1296;72551;-81
2023/12/12 04:36:14;;;;;;;10.10;7.50;;;;;;;21.42;32.04;100562.76;103156;1298;61336;-82
2023/12/12 04:38:45;;;;;;;9.40;7.50;;;;;;;21.42;31.93;100566.88;103238;1296;61330;-81
2023/12/12 04:41:12;;;;;;;10.20;7.70;;;;;;;21.42;32.01;100575.31;103346;1296;61256;-82
2023/12/12 04:43:38;;;;;;;10.20;7.70;;;;;;;21.42;32.01;100579.23;103283;1296;72388;-82
2023/12/12 04:46:04;;;;;;;9.60;7.10;;;;;;;21.42;31.91;100579.06;103211;1295;61400;-81
2023/12/12 04:48:30;;;;;;;10.90;7.50;;;;;;;21.42;31.99;100570.45;103148;1296;61657;-82
2023/12/12 04:50:55;;;;;;;10.50;7.80;;;;;;;21.42;32.02;100576.73;103297;1295;61464;-82
2023/12/12 04:53:21;;;;;;;9.90;7.40;;;;;;;21.42;31.98;100580.29;103381;1295;61301;-82
2023/12/12 04:55:47;;;;;;;10.00;7.40;;;;;;;21.43;31.88;100572.40;103246;1295;61397;-82
2023/12/12 04:58:12;;;;;;;9.60;6.80;;;;;;;21.42;32.03;100576.91;103221;1295;61761;-82
2023/12/12 05:00:38;;;;;;;11.60;7.40;;;;;;;21.42;32.03;100573.53;103313;1296;61323;-81
2023/12/12 05:03:03;;;;;;;10.00;7.30;;;;;;;21.42;32.09;100573.87;103206;1294;61336;-82
2023/12/12 05:05:29;;;;;;;10.30;7.30;;;;;;;21.42;31.94;100567.76;103124;1296;61685;-82
2023/12/12 05:07:55;;;;;;;9.80;7.50;;;;;;;21.42;31.95;100574.05;103256;1295;61704;-82
2023/12/12 05:10:21;;;;;;;11.60;7.90;;;;;;;21.42;31.92;100569.73;103175;1298;61400;-82
2023/12/12 05:12:46;;;;;;;9.10;7.10;;;;;;;21.42;31.94;100567.25;103513;1296;61387;-81
2023/12/12 05:15:12;;;;;;;10.50;7.40;;;;;;;21.42;32.07;100565.13;103516;1294;61399;-81
2023/12/12 05:17:38;;;;;;;10.60;7.50;;;;;;;21.42;31.93;100568.19;103467;1296;61432;-82
2023/12/12 05:20:04;;;;;;;10.50;7.50;;;;;;;21.42;32.16;100563.84;103275;1295;61419;-82
2023/12/12 05:22:30;;;;;;;10.90;7.80;;;;;;;21.43;32.11;100565.42;103203;1298;61383;-82
2023/12/12 05:24:55;;;;;;;9.70;7.20;;;;;;;21.44;32.09;100566.96;103267;1299;61586;-81
2023/12/12 05:27:21;;;;;;;11.60;7.90;;;;;;;21.44;32.09;100571.05;103157;1298;61416;-80
2023/12/12 05:29:47;;;;;;;12.80;8.50;;;;;;;21.44;32.15;100569.28;102899;1299;72423;-85
2023/12/12 05:32:13;;;;;;;14.50;8.30;;;;;;;21.43;32.12;100579.00;103733;1299;61403;-85
2023/12/12 05:34:39;;;;;;;13.00;8.50;;;;;;;21.41;32.17;100584.13;103875;1298;61394;-85
2023/12/12 05:37:04;;;;;;;12.50;8.50;;;;;;;21.40;32.14;100584.23;104082;1297;60016;-84
2023/12/12 05:39:30;;;;;;;14.90;9.30;;;;;;;21.38;32.22;100577.77;104426;1298;61594;-84
2023/12/12 05:41:56;;;;;;;12.70;9.50;;;;;;;21.35;32.21;100573.15;104480;1298;61689;-85
2023/12/12 05:44:23;;;;;;;15.00;10.00;;;;;;;21.33;32.32;100580.98;103978;1299;74297;-83
2023/12/12 05:46:54;;;;;;;13.40;9.00;;;;;;;21.31;32.33;100582.98;103916;1298;61281;-82
2023/12/12 05:49:21;;;;;;;16.90;11.00;;;;;;;21.28;32.38;100576.55;103954;1298;61588;-82
2023/12/12 05:51:47;;;;;;;19.50;12.20;;;;;;;21.24;32.45;100578.98;103753;1299;61423;-83
2023/12/12 05:54:13;;;;;;;20.00;11.80;;;;;;;21.19;32.33;100578.83;104269;1294;59342;-82
2023/12/12 05:56:38;;;;;;;22.50;11.60;;;;;;;21.15;32.19;100573.03;104712;1294;59285;-82
2023/12/12 05:59:05;;;;;;;22.10;12.20;;;;;;;21.11;32.30;100574.58;104306;1295;61266;-80
2023/12/12 06:01:30;;;;;;;19.00;11.80;;;;;;;21.05;32.15;100572.33;104610;1296;59286;-82
2023/12/12 06:03:56;;;;;;;24.90;12.00;;;;;;;21.02;32.20;100577.94;104800;1296;61497;-82
2023/12/12 06:06:22;;;;;;;26.70;12.40;;;;;;;21.00;32.29;100580.07;104875;1295;61384;-81
2023/12/12 06:08:47;;;;;;;26.40;13.10;;;;;;;20.99;32.30;100573.54;104535;1294;61470;-81
2023/12/12 06:11:13;;;;;;;19.50;11.80;;;;;;;21.00;32.43;100574.23;104602;1293;59299;-81
2023/12/12 06:13:39;;;;;;;21.00;11.90;;;;;;;20.99;32.39;100579.42;104701;1296;60082;-81
2023/12/12 06:16:04;;;;;;;21.50;11.70;;;;;;;21.00;32.26;100583.70;104546;1301;61439;-80
2023/12/12 06:18:30;;;;;;;23.40;12.00;;;;;;;21.00;32.20;100587.80;104071;1294;61497;-81
2023/12/12 06:20:56;;;;;;;41.90;12.80;;;;;;;21.01;32.25;100591.09;103902;1296;61399;-80
2023/12/12 06:23:21;;;;;;;43.70;12.60;;;;;;;21.03;32.38;100590.96;103945;1294;61060;-80
2023/12/12 06:25:48;;;;;;;30.20;11.70;;;;;;;21.06;32.41;100600.90;103889;1295;59299;-81
2023/12/12 06:28:13;;;;;;;29.90;11.50;;;;;;;21.07;32.64;100604.58;103976;1293;61258;-81
2023/12/12 06:30:39;;;;;;;23.00;11.00;;;;;;;21.08;33.20;100605.08;103813;1293;59601;-81
2023/12/12 06:33:05;;;;;;;22.70;11.40;;;;;;;21.07;33.49;100604.81;103904;1294;61302;-80
2023/12/12 06:35:31;;;;;;;22.20;11.90;;;;;;;21.05;33.63;100602.95;104153;1298;61660;-80
2023/12/12 06:37:57;;;;;;;30.40;11.90;;;;;;;21.03;33.81;100602.18;104108;1297;61359;-80
2023/12/12 06:40:23;;;;;;;21.10;12.30;;;;;;;21.02;34.01;100606.61;104058;1293;61326;-82
2023/12/12 06:42:48;;;;;;;19.40;11.50;;;;;;;21.00;33.93;100609.07;104215;1295;61206;-81
2023/12/12 06:45:14;;;;;;;19.80;12.40;;;;;;;20.98;33.88;100612.45;104392;1293;61325;-81
2023/12/12 06:47:40;;;;;;;18.20;11.80;;;;;;;20.96;33.67;100614.39;104343;1294;63194;-80
2023/12/12 06:50:06;;;;;;;18.30;11.50;;;;;;;20.93;33.68;100618.16;104168;1295;59428;-81
2023/12/12 06:52:35;;;;;;;16.40;11.10;;;;;;;20.91;33.52;100618.83;104359;1294;61244;-82
2023/12/12 06:55:00;;;;;;;18.90;11.80;;;;;;;20.88;33.38;100612.31;104288;1295;61288;-80
2023/12/12 06:57:26;;;;;;;18.10;11.40;;;;;;;20.88;33.33;100609.20;103978;1298;61317;-82
2023/12/12 06:59:52;;;;;;;16.40;10.10;;;;;;;20.86;33.30;100609.88;104314;1299;59168;-82
2023/12/12 07:02:18;;;;;;;16.80;10.60;;;;;;;20.86;33.39;100611.33;104739;1300;61453;-79
2023/12/12 07:04:44;;;;;;;24.80;10.60;;;;;;;20.89;33.62;100619.90;104951;1293;61336;-82
2023/12/12 07:07:09;;;;;;;14.90;10.20;;;;;;;20.92;33.61;100623.55;104779;1294;61330;-82
2023/12/12 07:09:35;;;;;;;18.80;11.00;;;;;;;20.95;33.51;100620.19;104558;1296;72428;-80
2023/12/12 07:12:01;;;;;;;17.10;10.80;;;;;;;20.97;33.63;100616.45;104708;1296;61315;-83
2023/12/12 07:14:27;;;;;;;22.20;10.80;;;;;;;21.00;33.59;100622.85;104664;1295;59119;-81
2023/12/12 07:16:52;;;;;;;20.90;9.80;;;;;;;21.02;33.50;100624.52;104132;1295;61332;-81
2023/12/12 07:19:19;;;;;;;19.30;10.20;;;;;;;21.03;33.56;100618.31;104212;1296;61342;-81
2023/12/12 07:21:44;;;;;;;18.00;10.60;;;;;;;21.05;33.46;100613.20;104080;1294;61131;-81
2023/12/12 07:24:10;;;;;;;15.30;10.70;;;;;;;21.07;33.36;100617.70;103838;1295;59920;-81
2023/12/12 07:26:39;;;;;;;19.80;10.90;;;;;;;21.09;33.37;100624.69;103845;1296;61307;-81
2023/12/12 07:29:05;;;;;;;20.30;11.20;;;;;;;21.11;33.29;100632.08;104011;1296;61173;-81
2023/12/12 07:31:30;;;;;;;19.30;11.20;;;;;;;21.13;33.38;100635.91;104047;1296;61311;-83
2023/12/12 07:33:56;;;;;;;18.90;11.40;;;;;;;21.14;33.36;100636.11;104132;1295;59799;-83
2023/12/12 07:36:23;;;;;;;22.20;11.40;;;;;;;21.16;33.32;100637.63;103416;1295;615946;-83
2023/12/12 07:38:49;;;;;;;23.20;11.80;;;;;;;21.17;33.25;100634.81;103996;1293;60331;-84
2023/12/12 07:41:15;;;;;;;21.30;12.10;;;;;;;21.19;33.32;100635.80;103736;1296;61369;-81
2023/12/12 07:43:40;;;;;;;20.80;12.20;;;;;;;21.20;33.48;100636.44;104077;1296;61253;-83
2023/12/12 07:46:06;;;;;;;27.40;12.30;;;;;;;21.20;33.45;100642.85;103605;1295;62267;-82
2023/12/12 07:48:32;;;;;;;17.40;12.10;;;;;;;21.21;33.53;100643.48;103827;1295;61340;-82
2023/12/12 07:50:57;;;;;;;22.90;12.40;;;;;;;21.22;33.34;100642.37;103726;1293;61515;-82
2023/12/12 07:53:23;;;;;;;21.80;13.00;;;;;;;21.22;33.37;100648.08;104906;1298;60099;-83
2023/12/12 07:55:49;;;;;;;24.00;12.30;;;;;;;21.22;33.38;100646.63;104845;1296;61637;-83
2023/12/12 07:58:14;;;;;;;21.80;13.00;;;;;;;21.21;33.51;100645.64;104455;1295;61183;-81
2023/12/12 08:00:40;;;;;;;23.00;12.30;;;;;;;21.21;33.58;100644.73;104232;1296;61464;-81
2023/12/12 08:03:06;;;;;;;24.70;12.60;;;;;;;21.21;33.70;100641.52;104424;1296;60018;-83
2023/12/12 08:05:32;;;;;;;20.50;11.90;;;;;;;21.21;33.89;100637.22;104278;1295;61360;-83
2023/12/12 08:08:03;;;;;;;22.40;12.40;;;;;;;21.22;33.94;100636.98;104564;1295;74907;-80
2023/12/12 08:10:30;;;;;;;26.20;12.60;;;;;;;21.22;33.87;100635.30;104583;1295;61152;-82
2023/12/12 08:12:57;;;;;;;28.00;11.60;;;;;;;21.23;33.96;100639.05;104236;1293;61281;-80
2023/12/12 08:15:23;;;;;;;32.00;11.50;;;;;;;21.24;34.48;100639.32;103402;1295;72332;-81
2023/12/12 08:17:49;;;;;;;25.10;13.60;;;;;;;21.27;34.94;100641.77;103632;1297;61505;-79
2023/12/12 08:20:14;;;;;;;27.70;16.90;;;;;;;21.26;35.07;100639.90;103930;1293;61390;-81
2023/12/12 08:22:40;;;;;;;25.00;14.00;;;;;;;21.08;34.84;100634.98;103281;1293;61302;-80
2023/12/12 08:25:07;;;;;;;26.80;13.50;;;;;;;20.97;35.02;100636.48;103940;1295;61285;-80
2023/12/12 08:27:33;;;;;;;22.90;14.80;;;;;;;20.96;35.14;100633.34;103681;1297;61227;-81
2023/12/12 08:30:04;;;;;;;25.70;15.90;;;;;;;20.88;35.08;100635.55;103699;1299;61358;-81
2023/12/12 08:32:29;;;;;;;22.80;13.80;;;;;;;20.82;34.90;100628.14;103349;1296;61326;-81
2023/12/12 08:34:55;;;;;;;24.90;15.00;;;;;;;20.76;34.75;100625.08;103408;1296;61451;-82
2023/12/12 08:37:21;;;;;;;21.90;14.10;;;;;;;20.74;34.69;100621.31;103629;1294;61390;-80
2023/12/12 08:39:47;;;;;;;21.90;14.50;;;;;;;20.74;34.53;100621.67;103289;1296;60380;-79
2023/12/12 08:42:13;;;;;;;26.80;14.90;;;;;;;20.74;34.55;100616.51;104021;1293;61264;-79
2023/12/12 08:44:41;;;;;;;25.50;14.10;;;;;;;20.76;34.26;100614.96;103700;1298;61487;-79
2023/12/12 08:47:07;;;;;;;23.80;15.00;;;;;;;20.76;34.26;100607.55;103331;1296;61310;-79
2023/12/12 08:49:37;;;;;;;21.20;13.60;;;;;;;20.78;34.03;100608.52;103798;1294;61393;-79
2023/12/12 08:52:06;;;;;;;22.60;14.10;;;;;;;20.80;33.96;100604.79;103472;1295;61960;-79
2023/12/12 08:54:33;;;;;;;20.60;15.00;;;;;;;20.84;33.93;100603.25;103382;1295;72538;-80
2023/12/12 08:56:59;;;;;;;26.40;14.00;;;;;;;20.86;33.81;100603.83;103843;1301;75800;-80
2023/12/12 08:59:24;;;;;;;20.30;12.80;;;;;;;20.87;33.99;100597.29;103435;1295;61263;-79
2023/12/12 09:01:50;;;;;;;26.30;14.80;;;;;;;20.88;34.12;100595.06;103654;1295;61336;-78
2023/12/12 09:04:16;;;;;;;24.70;13.70;;;;;;;20.88;34.28;100592.94;103412;1294;61375;-79
2023/12/12 09:06:46;;;;;;;24.60;13.80;;;;;;;20.89;34.37;100589.95;103465;1296;61378;-81
2023/12/12 09:09:12;;;;;;;;;;;;;;;20.89;34.41;100586.05;103300;1295;61333;-80
2023/12/12 09:11:40;;;;;;;24.40;13.30;;;;;;;20.85;34.46;100579.17;103432;1294;61406;-79
2023/12/12 09:14:06;;;;;;;22.10;13.70;;;;;;;20.86;34.52;100577.85;103871;1295;72549;-80
2023/12/12 09:16:32;;;;;;;28.10;13.50;;;;;;;20.86;34.42;100580.58;102998;1296;61499;-78
2023/12/12 09:18:58;;;;;;;22.00;14.00;;;;;;;20.85;34.39;100585.14;103122;1299;61410;-78
2023/12/12 09:21:23;;;;;;;21.10;13.00;;;;;;;20.83;34.44;100577.92;102888;1299;61364;-78
2023/12/12 09:23:49;;;;;;;22.30;13.60;;;;;;;20.80;34.51;100573.30;102701;1295;61859;-78
2023/12/12 09:26:15;;;;;;;21.90;14.10;;;;;;;20.78;34.49;100573.88;103148;1296;61413;-78
2023/12/12 09:28:41;;;;;;;19.10;13.50;;;;;;;20.75;34.26;100578.32;103035;1294;74622;-78
2023/12/12 09:31:08;;;;;;;22.60;14.00;;;;;;;20.72;34.31;100573.02;102888;1293;61470;-78
2023/12/12 09:33:34;;;;;;;20.60;13.20;;;;;;;20.69;34.23;100574.30;103002;1295;59301;-79
2023/12/12 09:36:00;;;;;;;25.00;13.90;;;;;;;20.67;34.28;100577.84;103003;1301;61311;-79
2023/12/12 09:38:26;;;;;;;29.10;14.80;;;;;;;20.65;34.35;100573.84;102981;1296;61323;-79
2023/12/12 09:40:52;;;;;;;25.60;13.10;;;;;;;20.64;34.44;100574.27;103155;1295;61380;-78
2023/12/12 09:43:17;;;;;;;26.00;13.20;;;;;;;20.63;34.63;100572.55;103002;1295;61421;-78
2023/12/12 09:45:48;;;;;;;23.20;14.00;;;;;;;20.62;34.59;100572.98;104044;1294;61474;-80
2023/12/12 09:48:14;;;;;;;23.00;13.20;;;;;;;20.61;34.73;100569.13;103460;1293;74563;-81
2023/12/12 09:50:48;;;;;;;26.40;14.00;;;;;;;20.59;34.85;100566.39;104375;1295;60011;-80
2023/12/12 09:53:14;;;;;;;27.90;14.00;;;;;;;20.57;34.84;100563.85;104709;1293;61303;-79
2023/12/12 09:55:41;;;;;;;26.20;14.00;;;;;;;20.52;34.84;100564.98;103858;1296;61393;-80
2023/12/12 09:58:07;;;;;;;25.10;14.40;;;;;;;20.44;34.93;100563.72;103983;1294;59563;-80
2023/12/12 10:00:33;;;;;;;24.60;12.70;;;;;;;20.37;34.98;100563.19;103984;1295;63472;-80
2023/12/12 10:03:00;;;;;;;22.30;12.90;;;;;;;20.34;35.15;100557.84;104146;1293;60568;-79
2023/12/12 10:05:26;;;;;;;24.20;13.10;;;;;;;20.33;35.16;100554.51;103968;1296;59664;-79
2023/12/12 10:07:52;;;;;;;23.60;12.30;;;;;;;20.34;35.15;100553.22;104104;1296;59390;-78
2023/12/12 10:10:17;;;;;;;27.50;13.10;;;;;;;20.35;35.37;100556.88;104338;1295;61750;-82
2023/12/12 10:12:43;;;;;;;30.20;13.50;;;;;;;20.37;35.33;100559.27;104464;1295;59329;-80
2023/12/12 10:15:25;;;;;;;28.70;13.40;;;;;;;20.36;35.26;100559.50;103810;1295;59285;-80
2023/12/12 10:17:58;;;;;;;22.60;12.80;;;;;;;20.36;35.42;100559.84;103835;1296;72762;-80
2023/12/12 10:20:29;;;;;;;24.30;12.20;;;;;;;20.37;35.45;100565.11;104314;1293;74421;-78
2023/12/12 10:22:58;;;;;;;21.80;12.70;;;;;;;20.41;35.31;100569.65;103680;1293;61379;-79
2023/12/12 10:25:24;;;;;;;22.40;12.70;;;;;;;20.45;35.33;100569.21;103607;1295;61227;-78
2023/12/12 10:27:53;;;;;;;23.30;12.70;;;;;;;20.48;35.20;100572.02;103860;1295;61497;-79
2023/12/12 10:30:21;;;;;;;22.20;12.70;;;;;;;20.51;35.23;100575.23;104190;1296;74253;-79
2023/12/12 10:32:53;;;;;;;25.90;12.70;;;;;;;20.53;35.00;100572.58;104017;1296;60516;-80
2023/12/12 10:35:23;;;;;;;23.00;12.80;;;;;;;20.55;34.91;100566.88;103722;1295;61172;-78
2023/12/12 10:37:50;;;;;;;20.70;12.40;;;;;;;20.57;34.82;100564.02;103764;1296;75667;-79
2023/12/12 10:40:22;;;;;;;27.20;12.90;;;;;;;20.59;34.79;100562.14;103897;1295;74234;-79
2023/12/12 10:42:51;;;;;;;26.10;13.80;;;;;;;20.61;34.75;100561.84;103946;1295;61469;-81
2023/12/12 10:45:17;;;;;;;23.80;13.60;;;;;;;20.63;34.57;100565.29;104035;1295;61424;-77
2023/12/12 10:47:49;;;;;;;20.30;12.00;;;;;;;20.62;34.54;100560.98;103391;1294;72673;-82
2023/12/12 10:50:15;;;;;;;24.60;13.40;;;;;;;20.63;34.54;100553.09;103917;1293;74520;-82
2023/12/12 10:52:43;;;;;;;19.90;12.70;;;;;;;20.62;34.35;100549.73;103806;1293;61309;-82
2023/12/12 10:55:09;;;;;;;26.40;14.10;;;;;;;20.61;34.34;100546.78;103423;1293;61444;-80
2023/12/12 10:57:36;;;;;;;20.80;12.40;;;;;;;20.61;34.15;100551.11;103704;1296;61431;-80
2023/12/12 11:00:11;;;;;;;18.10;11.80;;;;;;;20.59;34.32;100554.77;103543;1293;74654;-80
2023/12/12 11:02:39;;;;;;;23.80;13.30;;;;;;;20.58;34.24;100546.65;103333;1293;61279;-78